createdAt,value
2022-08-01T00:01:56.079Z,39.34
2022-08-01T00:04:22.654Z,39.82
2022-08-01T00:06:49.150Z,40.49
2022-08-01T00:09:23.869Z,40.49
2022-08-01T00:11:59.417Z,40.41
2022-08-01T00:14:31.921Z,40.59
2022-08-01T00:17:03.682Z,40.91
2022-08-01T00:19:34.032Z,40.21
2022-08-01T00:22:00.780Z,39.99
2022-08-01T00:24:28.351Z,40.37
2022-08-01T00:26:54.830Z,40.24
2022-08-01T00:30:09.501Z,39.44
2022-08-01T00:32:08.499Z,38.60
2022-08-01T00:34:36.071Z,38.14
2022-08-01T00:37:02.562Z,37.62
2022-08-01T00:39:29.057Z,37.15
2022-08-01T00:41:59.691Z,37.01
2022-08-01T00:44:27.711Z,36.88
2022-08-01T00:46:54.255Z,36.91
2022-08-01T00:49:20.942Z,37.01
2022-08-01T00:51:47.770Z,36.75
2022-08-01T00:54:16.505Z,37.14
2022-08-01T00:56:44.477Z,37.82
2022-08-01T00:59:14.015Z,37.82
2022-08-01T01:01:46.715Z,36.93
2022-08-01T01:04:17.313Z,36.78
2022-08-01T01:06:56.927Z,36.44
2022-08-01T01:10:16.266Z,36.45
2022-08-01T01:12:56.569Z,36.29
2022-08-01T01:15:38.785Z,36.65
2022-08-01T01:18:12.311Z,36.66
2022-08-01T01:20:43.399Z,36.70
2022-08-01T01:23:30.381Z,35.93
2022-08-01T01:26:18.319Z,36.00
2022-08-01T01:29:04.907Z,35.74
2022-08-01T01:31:40.644Z,35.97
2022-08-01T01:34:10.313Z,35.64
2022-08-01T01:36:39.991Z,35.31
2022-08-01T01:39:07.731Z,35.44
2022-08-01T01:41:38.351Z,35.60
2022-08-01T01:44:05.991Z,35.44
2022-08-01T01:46:34.128Z,35.38
2022-08-01T01:49:02.664Z,35.39
2022-08-01T01:51:30.438Z,35.55
2022-08-01T01:54:00.216Z,35.62
2022-08-01T01:56:30.670Z,36.11
2022-08-01T01:59:03.481Z,36.02
2022-08-01T02:01:58.091Z,36.08
2022-08-01T02:04:23.738Z,35.94
2022-08-01T02:06:53.903Z,35.92
2022-08-01T02:09:22.576Z,35.94
2022-08-01T02:12:05.030Z,36.00
2022-08-01T02:14:36.064Z,35.90
2022-08-01T02:17:02.618Z,35.94
2022-08-01T02:19:29.125Z,37.14
2022-08-01T02:22:06.010Z,37.31
2022-08-01T02:24:46.136Z,37.19
2022-08-01T02:27:18.254Z,37.13
2022-08-01T02:29:58.815Z,37.70
2022-08-01T02:32:33.390Z,37.86
2022-08-01T02:35:03.424Z,37.89
2022-08-01T02:37:35.271Z,37.67
2022-08-01T02:40:03.460Z,37.77
2022-08-01T02:42:32.378Z,37.64
2022-08-01T02:45:05.104Z,37.56
2022-08-01T02:47:34.370Z,37.60
2022-08-01T02:50:02.669Z,37.97
2022-08-01T02:52:31.714Z,37.73
2022-08-01T02:55:00.743Z,37.55
2022-08-01T02:57:37.665Z,37.54
2022-08-01T03:00:18.269Z,37.51
2022-08-01T03:02:48.585Z,37.65
2022-08-01T03:05:18.336Z,37.63
2022-08-01T03:07:45.820Z,37.86
2022-08-01T03:10:17.631Z,37.84
2022-08-01T03:12:48.290Z,37.76
2022-08-01T03:15:17.507Z,37.47
2022-08-01T03:17:48.088Z,38.40
2022-08-01T03:20:19.393Z,37.96
2022-08-01T03:22:49.931Z,38.21
2022-08-01T03:25:18.382Z,38.68
2022-08-01T03:27:48.677Z,38.82
2022-08-01T03:30:15.454Z,38.75
2022-08-01T03:32:42.258Z,38.79
2022-08-01T03:35:09.125Z,38.87
2022-08-01T03:38:13.071Z,38.79
2022-08-01T03:40:44.696Z,38.72
2022-08-01T03:43:18.882Z,38.74
2022-08-01T03:45:52.150Z,39.08
2022-08-01T03:48:23.435Z,38.69
2022-08-01T03:50:53.152Z,38.49
2022-08-01T03:53:25.601Z,38.91
2022-08-01T03:55:55.030Z,38.83
2022-08-01T03:58:22.695Z,38.92
2022-08-01T04:00:50.057Z,38.98
2022-08-01T04:03:17.969Z,39.10
2022-08-01T04:05:44.878Z,39.08
2022-08-01T04:08:11.413Z,39.32
2022-08-01T04:10:38.603Z,39.26
2022-08-01T04:13:09.916Z,39.17
2022-08-01T04:15:36.431Z,39.02
2022-08-01T04:18:03.055Z,39.26
2022-08-01T04:20:29.790Z,39.57
2022-08-01T04:22:56.546Z,39.36
2022-08-01T04:25:28.993Z,39.62
2022-08-01T04:27:58.052Z,39.67
2022-08-01T04:30:33.865Z,39.51
2022-08-01T04:33:07.453Z,40.24
2022-08-01T04:36:02.324Z,40.29
2022-08-01T04:38:29.176Z,40.86
2022-08-01T04:40:57.185Z,40.64
2022-08-01T04:43:23.810Z,40.36
2022-08-01T04:45:52.266Z,40.64
2022-08-01T04:48:19.360Z,40.78
2022-08-01T04:50:46.694Z,41.09
2022-08-01T04:53:15.722Z,41.46
2022-08-01T04:55:42.216Z,41.34
2022-08-01T04:58:12.541Z,41.73
2022-08-01T05:00:42.205Z,41.78
2022-08-01T05:03:08.817Z,41.82
2022-08-01T05:05:35.632Z,41.62
2022-08-01T05:08:02.133Z,41.59
2022-08-01T05:10:28.863Z,41.62
2022-08-01T05:12:55.385Z,42.11
2022-08-01T05:15:21.932Z,41.89
2022-08-01T05:17:48.434Z,41.76
2022-08-01T05:20:15.117Z,41.52
2022-08-01T05:22:41.781Z,41.99
2022-08-01T05:25:08.324Z,41.79
2022-08-01T05:27:35.359Z,41.87
2022-08-01T05:30:01.884Z,42.00
2022-08-01T05:32:28.382Z,42.54
2022-08-01T05:34:54.880Z,42.45
2022-08-01T05:37:21.380Z,42.44
2022-08-01T05:39:47.908Z,42.61
2022-08-01T05:42:14.518Z,42.52
2022-08-01T05:44:41.062Z,42.32
2022-08-01T05:47:07.622Z,42.34
2022-08-01T05:49:34.198Z,42.29
2022-08-01T05:52:00.764Z,42.18
2022-08-01T05:54:27.276Z,42.29
2022-08-01T05:56:53.797Z,42.00
2022-08-01T05:59:20.318Z,42.37
2022-08-01T06:01:46.870Z,41.87
2022-08-01T06:04:13.604Z,41.85
2022-08-01T06:06:40.262Z,41.57
2022-08-01T06:09:06.778Z,41.45
2022-08-01T06:11:33.388Z,40.99
2022-08-01T06:13:59.886Z,40.66
2022-08-01T06:16:26.486Z,39.33
2022-08-01T06:18:56.630Z,38.13
2022-08-01T06:21:23.569Z,38.15
2022-08-01T06:23:50.350Z,37.27
2022-08-01T06:26:20.890Z,37.08
2022-08-01T06:28:47.465Z,36.99
2022-08-01T06:31:13.957Z,37.30
2022-08-01T06:33:40.460Z,37.11
2022-08-01T06:36:06.994Z,37.17
2022-08-01T06:38:33.481Z,36.68
2022-08-01T06:40:59.958Z,35.85
2022-08-01T06:43:28.171Z,35.21
2022-08-01T06:45:54.704Z,34.85
2022-08-01T06:48:21.218Z,34.62
2022-08-01T06:50:47.745Z,34.16
2022-08-01T06:53:14.288Z,33.76
2022-08-01T06:55:40.794Z,33.53
2022-08-01T06:58:07.284Z,33.57
2022-08-01T07:00:33.941Z,33.57
2022-08-01T07:03:00.575Z,33.70
2022-08-01T07:05:27.097Z,33.83
2022-08-01T07:07:53.760Z,33.82
2022-08-01T07:10:20.362Z,34.58
2022-08-01T07:12:47.034Z,34.44
2022-08-01T07:15:13.572Z,34.51
2022-08-01T07:17:41.579Z,34.84
2022-08-01T07:20:16.071Z,34.29
2022-08-01T07:22:42.944Z,34.62
2022-08-01T07:25:10.325Z,35.83
2022-08-01T07:27:37.726Z,36.83
2022-08-01T07:30:06.091Z,36.86
2022-08-01T07:32:32.617Z,36.82
2022-08-01T07:34:59.150Z,36.12
2022-08-01T07:37:41.967Z,35.70
2022-08-01T07:40:13.741Z,35.78
2022-08-01T07:42:40.504Z,35.41
2022-08-01T07:45:07.491Z,35.18
2022-08-01T07:47:33.987Z,35.34
2022-08-01T07:50:02.975Z,35.15
2022-08-01T07:52:29.863Z,35.59
2022-08-01T07:54:56.843Z,35.76
2022-08-01T07:57:24.460Z,35.85
2022-08-01T07:59:51.041Z,35.98
2022-08-01T08:02:17.694Z,36.61
2022-08-01T08:04:48.746Z,36.25
2022-08-01T08:07:16.173Z,37.04
2022-08-01T08:09:42.669Z,36.67
2022-08-01T08:12:09.843Z,36.87
2022-08-01T08:14:37.357Z,37.37
2022-08-01T08:17:04.668Z,37.88
2022-08-01T08:19:37.883Z,37.44
2022-08-01T08:22:06.227Z,37.10
2022-08-01T08:24:33.084Z,36.67
2022-08-01T08:27:01.409Z,37.18
2022-08-01T08:29:29.738Z,36.61
2022-08-01T08:31:57.404Z,36.78
2022-08-01T08:34:25.000Z,36.75
2022-08-01T08:36:52.377Z,36.98
2022-08-01T08:39:19.762Z,36.60
2022-08-01T08:41:49.319Z,36.21
2022-08-01T08:44:18.077Z,36.73
2022-08-01T08:46:47.742Z,37.12
2022-08-01T08:49:18.278Z,37.01
2022-08-01T08:51:49.548Z,36.88
2022-08-01T08:54:18.748Z,36.16
2022-08-01T08:56:47.335Z,36.18
2022-08-01T08:59:14.792Z,36.19
2022-08-01T09:01:42.997Z,35.83
2022-08-01T09:04:11.043Z,35.74
2022-08-01T09:06:37.919Z,34.61
2022-08-01T09:09:06.347Z,35.55
2022-08-01T09:11:33.748Z,35.07
2022-08-01T09:14:17.459Z,34.96
2022-08-01T09:16:48.883Z,34.27
2022-08-01T09:19:39.192Z,34.10
2022-08-01T09:22:09.335Z,33.81
2022-08-01T09:24:37.306Z,33.45
2022-08-01T09:27:18.295Z,32.94
2022-08-01T09:29:49.939Z,32.83
2022-08-01T09:32:34.789Z,33.00
2022-08-01T09:35:30.125Z,32.53
2022-08-01T09:38:17.272Z,32.62
2022-08-01T09:40:58.137Z,32.06
2022-08-01T09:43:27.961Z,32.11
2022-08-01T09:45:55.926Z,31.70
2022-08-01T09:48:28.743Z,31.93
2022-08-01T09:51:04.398Z,32.37
2022-08-01T09:53:42.237Z,32.18
2022-08-01T09:56:10.663Z,32.01
2022-08-01T09:58:53.863Z,32.06
2022-08-01T10:01:25.977Z,31.65
2022-08-01T10:04:10.543Z,31.95
2022-08-01T10:06:38.296Z,31.06
2022-08-01T10:09:05.113Z,31.41
2022-08-01T10:11:36.109Z,31.76
2022-08-01T10:14:04.558Z,31.35
2022-08-01T10:16:32.810Z,31.00
2022-08-01T10:19:00.128Z,30.65
2022-08-01T10:21:56.833Z,30.78
2022-08-01T10:24:15.652Z,30.74
2022-08-01T10:26:49.732Z,30.22
2022-08-01T10:29:24.078Z,29.91
2022-08-01T10:32:06.261Z,30.21
2022-08-01T10:34:35.581Z,29.81
2022-08-01T10:37:05.371Z,30.06
2022-08-01T10:39:33.911Z,30.24
2022-08-01T10:42:01.506Z,29.41
2022-08-01T10:44:31.125Z,29.30
2022-08-01T10:47:10.516Z,29.40
2022-08-01T10:49:48.110Z,30.07
2022-08-01T10:52:21.396Z,29.69
2022-08-01T10:54:51.988Z,28.87
2022-08-01T10:57:19.120Z,29.41
2022-08-01T11:00:01.076Z,29.43
2022-08-01T11:02:32.876Z,28.85
2022-08-01T11:05:07.795Z,28.93
2022-08-01T11:07:53.677Z,27.99
2022-08-01T11:10:37.430Z,27.88
2022-08-01T11:13:07.159Z,25.85
2022-08-01T11:15:36.758Z,26.37
2022-08-01T11:18:30.862Z,26.46
2022-08-01T11:21:56.976Z,27.59
2022-08-01T11:23:51.792Z,26.44
2022-08-01T11:26:28.850Z,25.71
2022-08-01T11:29:22.309Z,25.79
2022-08-01T11:31:50.398Z,24.47
2022-08-01T11:34:17.069Z,24.84
2022-08-01T11:36:59.887Z,24.88
2022-08-01T11:39:26.936Z,24.61
2022-08-01T11:41:53.756Z,23.41
2022-08-01T11:44:24.770Z,22.35
2022-08-01T11:47:00.730Z,23.00
2022-08-01T11:49:38.794Z,21.44
2022-08-01T11:52:18.663Z,21.62
2022-08-01T11:54:53.283Z,22.51
2022-08-01T11:57:34.743Z,23.11
2022-08-01T12:00:16.784Z,21.99
2022-08-01T12:02:46.481Z,21.29
2022-08-01T12:05:17.075Z,22.04
2022-08-01T12:07:45.178Z,21.57
2022-08-01T12:10:14.873Z,21.21
2022-08-01T12:12:48.842Z,20.73
2022-08-01T12:15:16.385Z,22.10
2022-08-01T12:17:58.046Z,20.99
2022-08-01T12:20:31.294Z,21.47
2022-08-01T12:23:04.153Z,20.89
2022-08-01T12:25:30.754Z,20.82
2022-08-01T12:28:05.342Z,21.49
2022-08-01T12:30:33.600Z,22.45
2022-08-01T12:33:00.098Z,22.33
2022-08-01T12:35:28.905Z,22.68
2022-08-01T12:38:01.772Z,23.08
2022-08-01T12:40:32.104Z,22.65
2022-08-01T12:43:01.818Z,22.66
2022-08-01T12:45:33.782Z,22.39
2022-08-01T12:48:01.341Z,22.11
2022-08-01T12:50:31.342Z,22.32
2022-08-01T12:52:59.489Z,22.04
2022-08-01T12:55:34.394Z,22.26
2022-08-01T12:58:20.752Z,21.82
2022-08-01T13:00:50.243Z,22.18
2022-08-01T13:03:21.637Z,22.76
2022-08-01T13:05:51.169Z,22.60
2022-08-01T13:08:23.513Z,21.55
2022-08-01T13:10:51.000Z,21.11
2022-08-01T13:13:28.388Z,21.36
2022-08-01T13:16:05.198Z,21.04
2022-08-01T13:18:35.191Z,20.99
2022-08-01T13:21:10.338Z,20.72
2022-08-01T13:24:02.673Z,20.58
2022-08-01T13:26:45.327Z,19.73
2022-08-01T13:29:15.163Z,18.22
2022-08-01T13:31:42.372Z,17.08
2022-08-01T13:34:10.553Z,16.63
2022-08-01T13:36:39.570Z,15.45
2022-08-01T13:39:06.796Z,15.23
2022-08-01T13:41:36.225Z,14.65
2022-08-01T13:44:02.734Z,15.16
2022-08-01T13:46:29.693Z,14.20
2022-08-01T13:48:56.284Z,13.93
2022-08-01T13:51:23.066Z,13.85
2022-08-01T13:53:49.577Z,13.76
2022-08-01T13:56:16.136Z,13.70
2022-08-01T13:58:42.640Z,13.51
2022-08-01T14:01:09.221Z,13.24
2022-08-01T14:03:35.897Z,13.28
2022-08-01T14:06:03.442Z,13.28
2022-08-01T14:08:29.978Z,13.61
2022-08-01T14:10:57.860Z,14.02
2022-08-01T14:13:24.438Z,14.07
2022-08-01T14:15:51.213Z,14.20
2022-08-01T14:18:21.538Z,13.83
2022-08-01T14:20:48.181Z,14.72
2022-08-01T14:23:17.070Z,15.72
2022-08-01T14:26:03.433Z,16.26
2022-08-01T14:28:30.451Z,16.81
2022-08-01T14:30:58.494Z,17.20
2022-08-01T14:33:24.991Z,17.78
2022-08-01T14:36:06.288Z,17.65
2022-08-01T14:38:38.115Z,17.19
2022-08-01T14:41:04.801Z,17.07
2022-08-01T14:43:33.438Z,16.77
2022-08-01T14:46:01.861Z,16.86
2022-08-01T14:48:28.492Z,17.16
2022-08-01T14:50:57.521Z,17.10
2022-08-01T14:53:24.051Z,16.76
2022-08-01T14:55:50.761Z,16.36
2022-08-01T14:58:17.271Z,16.24
2022-08-01T15:00:43.813Z,15.97
2022-08-01T15:03:10.380Z,15.78
2022-08-01T15:05:36.895Z,15.75
2022-08-01T15:08:04.386Z,15.95
2022-08-01T15:10:30.910Z,16.12
2022-08-01T15:12:57.388Z,16.10
2022-08-01T15:15:23.893Z,16.63
2022-08-01T15:17:50.422Z,16.38
2022-08-01T15:20:16.909Z,16.23
2022-08-01T15:22:43.405Z,16.32
2022-08-01T15:25:10.842Z,15.75
2022-08-01T15:27:37.379Z,15.46
2022-08-01T15:30:04.619Z,15.08
2022-08-01T15:32:31.164Z,14.90
2022-08-01T15:34:57.646Z,14.75
2022-08-01T15:37:24.167Z,15.16
2022-08-01T15:39:50.792Z,15.52
2022-08-01T15:42:25.513Z,15.56
2022-08-01T15:44:54.323Z,15.23
2022-08-01T15:47:21.282Z,15.19
2022-08-01T15:49:52.434Z,14.99
2022-08-01T15:52:22.047Z,15.31
2022-08-01T15:54:49.773Z,15.47
2022-08-01T15:57:16.528Z,15.37
2022-08-01T15:59:43.215Z,15.63
2022-08-01T16:02:10.197Z,15.78
2022-08-01T16:04:38.702Z,16.77
2022-08-01T16:07:05.985Z,18.75
2022-08-01T16:09:32.556Z,19.70
2022-08-01T16:11:59.058Z,20.22
2022-08-01T16:14:25.611Z,20.91
2022-08-01T16:16:53.266Z,21.64
2022-08-01T16:19:19.818Z,21.65
2022-08-01T16:21:47.859Z,22.12
2022-08-01T16:24:14.598Z,22.59
2022-08-01T16:26:41.253Z,22.51
2022-08-01T16:29:07.759Z,22.75
2022-08-01T16:31:40.256Z,23.82
2022-08-01T16:34:22.327Z,23.76
2022-08-01T16:36:50.233Z,24.37
2022-08-01T16:39:22.516Z,24.56
2022-08-01T16:41:50.009Z,24.75
2022-08-01T16:44:33.213Z,24.66
2022-08-01T16:47:02.434Z,24.32
2022-08-01T16:49:29.362Z,24.83
2022-08-01T16:51:55.915Z,25.46
2022-08-01T16:54:25.624Z,25.26
2022-08-01T16:56:53.132Z,25.68
2022-08-01T16:59:19.812Z,26.23
2022-08-01T17:01:59.166Z,26.03
2022-08-01T17:04:29.860Z,27.04
2022-08-01T17:06:56.830Z,27.14
2022-08-01T17:09:23.367Z,27.12
2022-08-01T17:11:49.948Z,27.28
2022-08-01T17:14:16.596Z,27.32
2022-08-01T17:16:43.447Z,27.92
2022-08-01T17:19:10.042Z,28.06
2022-08-01T17:21:40.931Z,27.86
2022-08-01T17:24:08.095Z,27.90
2022-08-01T17:26:34.589Z,27.90
2022-08-01T17:29:01.107Z,27.79
2022-08-01T17:31:27.600Z,28.41
2022-08-01T17:33:55.249Z,28.18
2022-08-01T17:36:22.529Z,28.18
2022-08-01T17:38:49.220Z,28.21
2022-08-01T17:41:15.800Z,28.27
2022-08-01T17:43:42.302Z,28.15
2022-08-01T17:46:08.935Z,28.08
2022-08-01T17:48:35.439Z,28.21
2022-08-01T17:51:01.963Z,28.07
2022-08-01T17:53:28.480Z,27.89
2022-08-01T17:55:57.286Z,28.14
2022-08-01T17:58:33.654Z,28.02
2022-08-01T18:01:13.700Z,28.00
2022-08-01T18:03:40.780Z,28.41
2022-08-01T18:06:08.780Z,28.52
2022-08-01T18:08:35.493Z,28.68
2022-08-01T18:11:02.059Z,28.32
2022-08-01T18:13:29.343Z,28.02
2022-08-01T18:15:56.927Z,27.11
2022-08-01T18:18:33.465Z,27.34
2022-08-01T18:21:01.875Z,28.28
2022-08-01T18:23:28.787Z,28.77
2022-08-01T18:25:55.298Z,28.89
2022-08-01T18:28:31.677Z,28.92
2022-08-01T18:31:01.890Z,29.38
2022-08-01T18:33:28.414Z,29.90
2022-08-01T18:35:55.023Z,29.65
2022-08-01T18:38:28.906Z,30.21
2022-08-01T18:40:55.514Z,30.29
2022-08-01T18:43:22.023Z,30.48
2022-08-01T18:45:49.162Z,30.46
2022-08-01T18:48:15.638Z,31.20
2022-08-01T18:50:42.126Z,30.62
2022-08-01T18:53:08.627Z,30.85
2022-08-01T18:55:35.266Z,30.71
2022-08-01T18:58:01.769Z,31.18
2022-08-01T19:00:28.256Z,31.10
2022-08-01T19:02:54.737Z,31.02
2022-08-01T19:05:21.527Z,31.53
2022-08-01T19:08:06.913Z,31.53
2022-08-01T19:10:39.644Z,31.33
2022-08-01T19:13:06.353Z,31.99
2022-08-01T19:15:33.623Z,31.99
2022-08-01T19:18:00.459Z,32.33
2022-08-01T19:20:27.957Z,32.67
2022-08-01T19:22:55.562Z,32.66
2022-08-01T19:25:22.140Z,32.74
2022-08-01T19:27:50.266Z,32.83
2022-08-01T19:30:18.760Z,32.83
2022-08-01T19:32:47.168Z,33.00
2022-08-01T19:35:15.949Z,32.82
2022-08-01T19:37:43.099Z,33.02
2022-08-01T19:40:10.358Z,32.88
2022-08-01T19:42:41.710Z,32.93
2022-08-01T19:45:10.042Z,32.24
2022-08-01T19:47:51.725Z,32.34
2022-08-01T19:50:27.603Z,32.96
2022-08-01T19:52:55.954Z,32.74
2022-08-01T19:55:24.379Z,32.73
2022-08-01T19:58:10.498Z,32.79
2022-08-01T20:00:40.453Z,32.87
2022-08-01T20:03:08.996Z,32.46
2022-08-01T20:05:35.853Z,32.84
2022-08-01T20:08:02.922Z,32.84
2022-08-01T20:10:31.792Z,33.42
2022-08-01T20:12:58.350Z,33.42
2022-08-01T20:15:25.390Z,33.45
2022-08-01T20:17:51.887Z,33.67
2022-08-01T20:20:18.507Z,33.97
2022-08-01T20:22:48.772Z,34.12
2022-08-01T20:25:20.235Z,34.09
2022-08-01T20:27:47.589Z,34.05
2022-08-01T20:30:14.410Z,34.11
2022-08-01T20:32:41.470Z,34.60
2022-08-01T20:35:08.903Z,34.59
2022-08-01T20:38:03.824Z,34.75
2022-08-01T20:40:26.778Z,34.78
2022-08-01T20:42:55.169Z,34.75
2022-08-01T20:45:23.765Z,34.28
2022-08-01T20:47:50.556Z,34.25
2022-08-01T20:50:27.811Z,34.06
2022-08-01T20:53:08.043Z,34.29
2022-08-01T20:55:48.627Z,34.11
2022-08-01T20:58:27.182Z,33.47
2022-08-01T21:00:56.776Z,33.23
2022-08-01T21:03:36.503Z,33.27
2022-08-01T21:06:11.383Z,33.44
2022-08-01T21:08:43.760Z,33.74
2022-08-01T21:11:16.704Z,33.62
2022-08-01T21:13:45.236Z,33.41
2022-08-01T21:16:22.326Z,33.99
2022-08-01T21:19:19.778Z,34.09
2022-08-01T21:21:59.558Z,34.14
2022-08-01T21:24:39.151Z,34.22
2022-08-01T21:27:06.368Z,34.61
2022-08-01T21:29:35.711Z,34.79
2022-08-01T21:32:07.184Z,35.14
2022-08-01T21:34:35.944Z,34.43
2022-08-01T21:37:02.626Z,34.82
2022-08-01T21:39:29.453Z,34.40
2022-08-01T21:42:05.354Z,34.66
2022-08-01T21:44:34.985Z,34.96
2022-08-01T21:47:02.951Z,35.02
2022-08-01T21:49:29.470Z,35.39
2022-08-01T21:52:12.225Z,35.76
2022-08-01T21:55:00.426Z,36.38
2022-08-01T21:58:17.393Z,36.70
2022-08-01T22:00:52.775Z,36.76
2022-08-01T22:03:35.440Z,37.71
2022-08-01T22:06:03.726Z,36.44
2022-08-01T22:08:39.739Z,37.13
2022-08-01T22:11:08.284Z,36.67
2022-08-01T22:13:35.791Z,36.64
2022-08-01T22:16:05.467Z,36.95
2022-08-01T22:18:34.208Z,37.42
2022-08-01T22:21:03.124Z,37.76
2022-08-01T22:23:29.822Z,37.49
2022-08-01T22:25:56.664Z,38.56
2022-08-01T22:28:23.222Z,38.21
2022-08-01T22:30:52.732Z,37.89
2022-08-01T22:33:19.492Z,38.37
2022-08-01T22:35:51.469Z,38.87
2022-08-01T22:38:20.541Z,38.97
2022-08-01T22:41:03.112Z,38.99
2022-08-01T22:43:42.046Z,39.57
2022-08-01T22:46:15.446Z,38.98
2022-08-01T22:48:52.145Z,38.90
2022-08-01T22:51:38.073Z,39.89
2022-08-01T22:54:13.465Z,40.22
2022-08-01T22:56:47.186Z,39.93
2022-08-01T22:59:20.190Z,39.77
2022-08-01T23:01:50.811Z,39.49
2022-08-01T23:04:37.170Z,39.93
2022-08-01T23:07:06.076Z,40.04
2022-08-01T23:09:52.791Z,40.48
2022-08-01T23:12:23.405Z,41.07
2022-08-01T23:14:54.022Z,40.73
2022-08-01T23:17:27.658Z,40.54
2022-08-01T23:19:59.026Z,40.21
2022-08-01T23:22:31.973Z,40.29
2022-08-01T23:25:04.686Z,40.51
2022-08-01T23:28:03.576Z,40.47
2022-08-01T23:30:32.613Z,39.97
2022-08-01T23:32:59.252Z,40.60
2022-08-01T23:35:26.223Z,40.34
2022-08-01T23:37:53.570Z,40.65
2022-08-01T23:40:20.656Z,40.49
2022-08-01T23:42:52.560Z,40.58
2022-08-01T23:45:19.118Z,39.85
2022-08-01T23:47:45.639Z,39.85
2022-08-01T23:50:12.893Z,39.51
2022-08-01T23:52:47.263Z,39.21
2022-08-01T23:55:16.926Z,39.38
2022-08-01T23:57:44.328Z,39.46
